Time;durP1;ratioP1;P1;durP2;ratioP2;P2;SDS_P1;SDS_P2;PMS_P1;PMS_P2;Temp;Humidity;BMP_temperature;BMP_pressure;BME280_temperature;BME280_humidity;BME280_pressure;Samples;Min_cycle;Max_cycle;Signal;HPM_P1;HPM_P2
2022/03/19 00:00:28;;;;;;;11.85;3.22;;;;;;;;;;5077702;28;20052;-48
2022/03/19 00:02:54;;;;;;;7.90;2.60;;;;;;;;;;5078661;28;20523;-46
2022/03/19 00:05:21;;;;;;;9.63;3.55;;;;;;;;;;5084555;28;20121;-50
2022/03/19 00:07:47;;;;;;;10.45;3.50;;;;;;;;;;5086784;28;20376;-47
2022/03/19 00:10:15;;;;;;;8.32;2.55;;;;;;;;;;5088457;28;20522;-47
2022/03/19 00:12:41;;;;;;;8.00;3.05;;;;;;;;;;5081193;28;20392;-46
2022/03/19 00:15:08;;;;;;;6.32;2.70;;;;;;;;;;5081368;28;20056;-46
2022/03/19 00:17:34;;;;;;;10.15;3.28;;;;;;;;;;5076597;28;20024;-46
2022/03/19 00:20:00;;;;;;;9.20;2.63;;;;;;;;;;5087956;28;20484;-47
2022/03/19 00:22:27;;;;;;;13.38;3.13;;;;;;;;;;5079019;28;20036;-47
2022/03/19 00:24:53;;;;;;;15.90;3.25;;;;;;;;;;5082746;28;20425;-52
2022/03/19 00:27:19;;;;;;;12.70;3.40;;;;;;;;;;5076204;28;20476;-50
2022/03/19 00:29:45;;;;;;;13.52;2.78;;;;;;;;;;5084250;28;20028;-46
2022/03/19 00:32:11;;;;;;;15.80;3.58;;;;;;;;;;5078377;28;20021;-51
2022/03/19 00:34:37;;;;;;;10.02;3.15;;;;;;;;;;5091137;28;20046;-46
2022/03/19 00:37:03;;;;;;;11.50;3.53;;;;;;;;;;5092749;28;20035;-47
2022/03/19 00:39:29;;;;;;;14.27;2.92;;;;;;;;;;5083400;28;20021;-47
2022/03/19 00:41:55;;;;;;;8.75;2.80;;;;;;;;;;5079391;28;20070;-50
2022/03/19 00:44:22;;;;;;;7.68;3.05;;;;;;;;;;5083307;28;20099;-46
2022/03/19 00:46:48;;;;;;;6.72;2.83;;;;;;;;;;5092498;28;20035;-46
2022/03/19 00:49:14;;;;;;;8.65;2.95;;;;;;;;;;5087521;28;20030;-46
2022/03/19 00:51:40;;;;;;;9.35;2.83;;;;;;;;;;5093328;28;20028;-46
2022/03/19 00:54:07;;;;;;;12.00;3.13;;;;;;;;;;5090367;28;20141;-46
2022/03/19 00:56:34;;;;;;;8.95;2.75;;;;;;;;;;5083104;28;20479;-47
2022/03/19 00:59:00;;;;;;;13.85;3.30;;;;;;;;;;5078836;28;20020;-47
2022/03/19 01:01:26;;;;;;;6.18;2.22;;;;;;;;;;5087815;28;20039;-50
2022/03/19 01:03:53;;;;;;;6.05;2.92;;;;;;;;;;5089183;28;20035;-47
2022/03/19 01:06:19;;;;;;;8.73;2.92;;;;;;;;;;5079386;28;20032;-49
2022/03/19 01:08:45;;;;;;;8.30;2.40;;;;;;;;;;5088564;28;20112;-47
2022/03/19 01:11:11;;;;;;;12.75;2.42;;;;;;;;;;5089028;28;20032;-49
2022/03/19 01:13:37;;;;;;;8.32;2.55;;;;;;;;;;5087895;28;20107;-49
2022/03/19 01:16:03;;;;;;;7.03;2.67;;;;;;;;;;5085442;28;20024;-48
2022/03/19 01:18:30;;;;;;;5.40;2.53;;;;;;;;;;5083708;28;20035;-46
2022/03/19 01:20:56;;;;;;;11.80;3.05;;;;;;;;;;5083213;28;20031;-50
2022/03/19 01:23:22;;;;;;;8.57;2.78;;;;;;;;;;5092530;28;20480;-47
2022/03/19 01:25:48;;;;;;;10.20;2.92;;;;;;;;;;5093485;28;20413;-47
2022/03/19 01:28:14;;;;;;;6.25;2.28;;;;;;;;;;5090623;28;20031;-49
2022/03/19 01:30:40;;;;;;;8.40;2.20;;;;;;;;;;5085864;28;20024;-46
2022/03/19 01:33:06;;;;;;;7.60;3.22;;;;;;;;;;5089498;28;20039;-46
2022/03/19 01:35:32;;;;;;;4.85;2.13;;;;;;;;;;5086654;28;20044;-50
2022/03/19 01:37:59;;;;;;;10.77;3.03;;;;;;;;;;5073450;28;20024;-49
2022/03/19 01:40:25;;;;;;;5.03;2.15;;;;;;;;;;5083363;28;20037;-48
2022/03/19 01:42:51;;;;;;;5.63;2.05;;;;;;;;;;5076393;28;20036;-50
2022/03/19 01:45:19;;;;;;;7.80;2.50;;;;;;;;;;5086330;28;20025;-50
2022/03/19 01:47:47;;;;;;;7.80;2.20;;;;;;;;;;5088825;28;20460;-47
2022/03/19 01:50:13;;;;;;;8.90;2.40;;;;;;;;;;5090002;28;20480;-50
2022/03/19 01:52:40;;;;;;;6.00;2.03;;;;;;;;;;5088114;28;20124;-46
2022/03/19 01:55:07;;;;;;;8.18;2.55;;;;;;;;;;5087734;28;21047;-46
2022/03/19 01:57:37;;;;;;;7.97;2.95;;;;;;;;;;5082687;28;20429;-46
2022/03/19 02:00:03;;;;;;;9.23;2.83;;;;;;;;;;5090680;28;20081;-46
2022/03/19 02:02:29;;;;;;;7.82;2.08;;;;;;;;;;5078986;28;20373;-46
2022/03/19 02:04:58;;;;;;;11.32;2.10;;;;;;;;;;5086870;28;20016;-47
2022/03/19 02:07:24;;;;;;;6.05;2.45;;;;;;;;;;5082919;28;20103;-46
2022/03/19 02:09:50;;;;;;;11.52;2.72;;;;;;;;;;5088631;28;20480;-50
2022/03/19 02:12:16;;;;;;;9.38;2.30;;;;;;;;;;5089207;28;20042;-48
2022/03/19 02:14:44;;;;;;;6.80;2.00;;;;;;;;;;5085469;28;20105;-46
2022/03/19 02:17:10;;;;;;;10.88;2.67;;;;;;;;;;5080704;28;20032;-48
2022/03/19 02:19:47;;;;;;;10.13;2.78;;;;;;;;;;5091647;28;20068;-45
2022/03/19 02:22:14;;;;;;;8.32;2.70;;;;;;;;;;5081475;28;20024;-47
2022/03/19 02:27:24;;;;;;;13.57;3.63;;;;;;;;;;5088130;28;20055;-49
2022/03/19 02:29:51;;;;;;;10.25;3.58;;;;;;;;;;5084140;28;20044;-46
2022/03/19 02:32:17;;;;;;;12.32;3.25;;;;;;;;;;5087479;28;20468;-48
2022/03/19 02:34:43;;;;;;;9.02;3.55;;;;;;;;;;5088433;28;20020;-51
2022/03/19 02:37:09;;;;;;;8.32;2.53;;;;;;;;;;5084894;28;20029;-48
2022/03/19 02:39:35;;;;;;;8.23;3.80;;;;;;;;;;5073478;28;20033;-48
2022/03/19 02:42:05;;;;;;;9.80;2.50;;;;;;;;;;5085523;28;20112;-46
2022/03/19 02:44:31;;;;;;;9.27;3.10;;;;;;;;;;5090430;28;20082;-48
2022/03/19 02:46:59;;;;;;;10.68;2.90;;;;;;;;;;5087575;28;20039;-47
2022/03/19 02:49:25;;;;;;;8.63;3.10;;;;;;;;;;5092191;28;20032;-48
2022/03/19 02:51:52;;;;;;;7.78;2.33;;;;;;;;;;5082564;28;20423;-47
2022/03/19 02:54:19;;;;;;;7.93;2.60;;;;;;;;;;5083529;28;20078;-48
2022/03/19 02:56:46;;;;;;;10.38;2.83;;;;;;;;;;5082715;28;20040;-49
2022/03/19 02:59:13;;;;;;;11.48;2.90;;;;;;;;;;5089310;28;20027;-47
2022/03/19 03:01:40;;;;;;;10.45;3.90;;;;;;;;;;5081230;28;20043;-46
2022/03/19 03:04:06;;;;;;;10.68;3.47;;;;;;;;;;5088264;28;20024;-49
2022/03/19 03:06:36;;;;;;;15.95;4.18;;;;;;;;;;5085029;28;20111;-45
2022/03/19 03:09:03;;;;;;;13.68;3.58;;;;;;;;;;5087099;28;20039;-47
2022/03/19 03:11:29;;;;;;;8.35;3.35;;;;;;;;;;5082585;28;20032;-46
2022/03/19 03:13:55;;;;;;;13.93;3.95;;;;;;;;;;5091015;28;20372;-48
2022/03/19 03:16:21;;;;;;;8.48;3.00;;;;;;;;;;5076194;28;20040;-46
2022/03/19 03:18:47;;;;;;;8.70;3.88;;;;;;;;;;5083381;28;20104;-49
2022/03/19 03:21:13;;;;;;;10.50;3.60;;;;;;;;;;5089768;28;20096;-46
2022/03/19 03:23:39;;;;;;;10.65;4.07;;;;;;;;;;5086788;28;20056;-51
2022/03/19 03:26:06;;;;;;;9.07;3.85;;;;;;;;;;5082018;28;20037;-46
2022/03/19 03:28:32;;;;;;;16.20;5.40;;;;;;;;;;5091244;28;20546;-50
2022/03/19 03:30:58;;;;;;;11.20;4.05;;;;;;;;;;5079629;28;20640;-48
2022/03/19 03:33:24;;;;;;;9.45;3.90;;;;;;;;;;5085550;28;20032;-48
2022/03/19 03:35:50;;;;;;;13.43;3.90;;;;;;;;;;5086777;28;20154;-46
2022/03/19 03:38:16;;;;;;;10.40;4.57;;;;;;;;;;5088835;28;20506;-47
2022/03/19 03:40:42;;;;;;;12.30;4.13;;;;;;;;;;5083303;28;20462;-47
2022/03/19 03:43:09;;;;;;;14.93;5.32;;;;;;;;;;5083527;28;20398;-47
2022/03/19 03:45:35;;;;;;;17.65;5.30;;;;;;;;;;5081662;28;20025;-46
2022/03/19 03:48:01;;;;;;;13.27;5.75;;;;;;;;;;5079465;28;20021;-47
2022/03/19 03:50:27;;;;;;;15.52;4.60;;;;;;;;;;5082904;28;20035;-46
2022/03/19 03:52:54;;;;;;;14.35;4.65;;;;;;;;;;5084073;28;20039;-46
2022/03/19 03:55:20;;;;;;;17.58;4.43;;;;;;;;;;5089553;28;20035;-45
2022/03/19 03:57:46;;;;;;;17.00;4.80;;;;;;;;;;5085271;28;20028;-48
2022/03/19 04:00:12;;;;;;;18.15;5.25;;;;;;;;;;5083385;28;20070;-47
2022/03/19 04:02:39;;;;;;;10.20;4.43;;;;;;;;;;5083400;28;20032;-46
2022/03/19 04:05:08;;;;;;;14.80;4.70;;;;;;;;;;5093812;28;20020;-46
2022/03/19 04:07:34;;;;;;;12.63;4.53;;;;;;;;;;5083528;28;20024;-49
2022/03/19 04:10:00;;;;;;;9.55;4.55;;;;;;;;;;5081169;28;20098;-46
2022/03/19 04:12:26;;;;;;;10.85;4.38;;;;;;;;;;5081230;28;20029;-47
2022/03/19 04:14:52;;;;;;;18.13;5.07;;;;;;;;;;5086251;28;20025;-47
2022/03/19 04:17:18;;;;;;;13.40;5.70;;;;;;;;;;5076974;28;20037;-46
2022/03/19 04:19:45;;;;;;;13.00;5.40;;;;;;;;;;5082827;28;20024;-46
2022/03/19 04:22:11;;;;;;;11.75;5.25;;;;;;;;;;5090961;28;20059;-46
2022/03/19 04:24:37;;;;;;;14.32;4.88;;;;;;;;;;5089205;28;20024;-47
2022/03/19 04:27:03;;;;;;;11.23;5.53;;;;;;;;;;5094139;28;20103;-48
2022/03/19 04:29:29;;;;;;;8.00;4.65;;;;;;;;;;5081330;28;20115;-46
2022/03/19 04:31:55;;;;;;;13.38;5.97;;;;;;;;;;5086743;28;20028;-46
2022/03/19 04:34:21;;;;;;;14.45;5.30;;;;;;;;;;5087915;28;20044;-46
2022/03/19 04:36:47;;;;;;;13.95;5.07;;;;;;;;;;5090023;28;20029;-48
2022/03/19 04:39:14;;;;;;;15.27;5.15;;;;;;;;;;5084571;28;20055;-49
2022/03/19 04:41:41;;;;;;;13.85;5.57;;;;;;;;;;5087099;28;20023;-49
2022/03/19 04:44:07;;;;;;;13.30;5.13;;;;;;;;;;5094834;28;20043;-46
2022/03/19 04:46:34;;;;;;;9.65;4.95;;;;;;;;;;5090445;28;20044;-46
2022/03/19 04:49:00;;;;;;;11.00;4.65;;;;;;;;;;5084166;28;20024;-51
2022/03/19 04:51:44;;;;;;;13.93;5.53;;;;;;;;;;5081270;28;20036;-47
2022/03/19 04:54:10;;;;;;;14.02;5.20;;;;;;;;;;5085041;28;20425;-46
2022/03/19 04:56:36;;;;;;;9.43;4.80;;;;;;;;;;5089720;28;20024;-46
2022/03/19 04:59:03;;;;;;;10.68;5.30;;;;;;;;;;5079964;28;20045;-47
2022/03/19 05:01:30;;;;;;;10.00;5.53;;;;;;;;;;5082863;28;20020;-47
2022/03/19 05:03:56;;;;;;;19.05;5.70;;;;;;;;;;5081435;28;20047;-46
2022/03/19 05:06:22;;;;;;;14.30;5.28;;;;;;;;;;5075032;28;20132;-49
2022/03/19 05:11:12;;;;;;;10.88;5.38;;;;;;;;;;5083785;28;20036;-46
2022/03/19 05:11:35;;;;;;;10.00;4.75;;;;;;;;;;5089543;28;20557;-48
2022/03/19 05:14:00;;;;;;;12.40;5.85;;;;;;;;;;5089529;28;20420;-46
2022/03/19 05:16:26;;;;;;;19.85;5.28;;;;;;;;;;5080760;28;20032;-46
2022/03/19 05:18:52;;;;;;;14.45;5.13;;;;;;;;;;5088413;28;20491;-46
2022/03/19 05:21:18;;;;;;;14.50;4.65;;;;;;;;;;5084697;28;20115;-47
2022/03/19 05:23:45;;;;;;;13.43;5.03;;;;;;;;;;5090417;28;20024;-51
2022/03/19 05:26:11;;;;;;;13.90;5.45;;;;;;;;;;5093290;28;20020;-48
2022/03/19 05:28:37;;;;;;;12.65;5.20;;;;;;;;;;5080414;28;20119;-50
2022/03/19 05:31:03;;;;;;;14.07;5.32;;;;;;;;;;5088262;28;20115;-46
2022/03/19 05:36:14;;;;;;;18.17;5.32;;;;;;;;;;5083132;28;20047;-47
2022/03/19 05:38:40;;;;;;;15.77;6.63;;;;;;;;;;5086216;28;20062;-49
2022/03/19 05:41:06;;;;;;;12.30;5.25;;;;;;;;;;5085657;28;20424;-47
2022/03/19 05:43:32;;;;;;;13.98;5.78;;;;;;;;;;5086045;28;20089;-48
2022/03/19 05:45:58;;;;;;;12.15;4.85;;;;;;;;;;5091125;28;20039;-46
2022/03/19 05:48:24;;;;;;;22.38;5.78;;;;;;;;;;5087347;28;20040;-46
2022/03/19 05:50:50;;;;;;;12.27;6.30;;;;;;;;;;5083422;28;20514;-49
2022/03/19 05:53:16;;;;;;;17.00;5.60;;;;;;;;;;5082271;28;20110;-51
2022/03/19 05:55:42;;;;;;;12.32;5.25;;;;;;;;;;5083377;28;20043;-47
2022/03/19 05:58:08;;;;;;;14.68;5.22;;;;;;;;;;5074771;28;20040;-46
2022/03/19 06:00:34;;;;;;;13.55;5.78;;;;;;;;;;5087867;28;20035;-47
2022/03/19 06:03:00;;;;;;;13.23;5.15;;;;;;;;;;5075895;28;20368;-51
2022/03/19 06:05:26;;;;;;;14.77;5.50;;;;;;;;;;5079356;28;20032;-47
2022/03/19 06:07:54;;;;;;;17.48;5.63;;;;;;;;;;5079495;28;20031;-49
2022/03/19 06:10:20;;;;;;;13.60;6.05;;;;;;;;;;5080123;28;20031;-46
2022/03/19 06:12:49;;;;;;;15.18;6.38;;;;;;;;;;5083622;28;20111;-48
2022/03/19 06:15:15;;;;;;;14.07;6.05;;;;;;;;;;5090019;28;20027;-47
2022/03/19 06:17:41;;;;;;;16.73;5.63;;;;;;;;;;5076441;28;20036;-46
2022/03/19 06:20:07;;;;;;;12.30;5.80;;;;;;;;;;5087678;28;20345;-47
2022/03/19 06:22:33;;;;;;;9.80;4.32;;;;;;;;;;5085735;28;20039;-46
2022/03/19 06:24:58;;;;;;;16.83;5.32;;;;;;;;;;5081576;28;20024;-48
2022/03/19 06:27:24;;;;;;;11.90;4.78;;;;;;;;;;5081424;28;20081;-46
2022/03/19 06:29:50;;;;;;;14.68;5.40;;;;;;;;;;5078062;28;20024;-46
2022/03/19 06:32:20;;;;;;;13.32;5.28;;;;;;;;;;5084725;28;20033;-46
2022/03/19 06:34:46;;;;;;;10.48;5.40;;;;;;;;;;5091694;28;20040;-46
2022/03/19 06:37:22;;;;;;;11.52;4.82;;;;;;;;;;5082387;28;20064;-48
2022/03/19 06:39:55;;;;;;;21.27;5.60;;;;;;;;;;5079632;28;20542;-48
2022/03/19 06:42:22;;;;;;;14.20;5.10;;;;;;;;;;5079174;28;20031;-48
2022/03/19 06:44:48;;;;;;;10.13;4.90;;;;;;;;;;5089967;28;20020;-49
2022/03/19 06:47:14;;;;;;;8.50;4.65;;;;;;;;;;5087883;28;20383;-49
2022/03/19 06:49:41;;;;;;;11.52;4.40;;;;;;;;;;5086079;28;20035;-46
2022/03/19 06:52:07;;;;;;;17.75;4.38;;;;;;;;;;5091427;28;20044;-47
2022/03/19 06:54:33;;;;;;;11.90;4.30;;;;;;;;;;5081345;28;20079;-47
2022/03/19 06:56:59;;;;;;;8.45;4.15;;;;;;;;;;5081904;28;20035;-46
2022/03/19 06:59:25;;;;;;;13.35;4.35;;;;;;;;;;5092960;28;20024;-46
2022/03/19 07:01:51;;;;;;;12.13;3.83;;;;;;;;;;5079570;28;20376;-47
2022/03/19 07:04:17;;;;;;;14.43;3.33;;;;;;;;;;5078868;28;20490;-47
2022/03/19 07:06:43;;;;;;;9.77;3.67;;;;;;;;;;5080544;28;20033;-46
2022/03/19 07:09:09;;;;;;;7.50;3.15;;;;;;;;;;5090333;28;20032;-45
2022/03/19 07:11:35;;;;;;;11.15;3.85;;;;;;;;;;5077611;28;20456;-46
2022/03/19 07:14:03;;;;;;;11.02;5.95;;;;;;;;;;5079868;28;20024;-46
2022/03/19 07:16:29;;;;;;;9.90;5.25;;;;;;;;;;5086223;28;20038;-47
2022/03/19 07:18:55;;;;;;;11.13;3.70;;;;;;;;;;5085261;28;20025;-48
2022/03/19 07:21:22;;;;;;;10.80;3.97;;;;;;;;;;5082220;28;20020;-49
2022/03/19 07:23:48;;;;;;;10.02;2.78;;;;;;;;;;5077386;28;20020;-46
2022/03/19 07:26:14;;;;;;;10.35;2.80;;;;;;;;;;5080667;28;20368;-48
2022/03/19 07:28:40;;;;;;;7.55;3.50;;;;;;;;;;5071038;28;20025;-50
2022/03/19 07:31:06;;;;;;;10.20;2.80;;;;;;;;;;5077816;28;20395;-46
2022/03/19 07:33:34;;;;;;;9.75;2.85;;;;;;;;;;5089933;28;20040;-47
2022/03/19 07:36:01;;;;;;;10.50;3.35;;;;;;;;;;5085576;28;20063;-46
2022/03/19 07:38:27;;;;;;;10.95;2.90;;;;;;;;;;5089288;28;20107;-47
2022/03/19 07:43:37;;;;;;;7.50;2.53;;;;;;;;;;5076641;28;20043;-47
2022/03/19 07:46:03;;;;;;;13.05;3.20;;;;;;;;;;5082936;28;20032;-48
2022/03/19 07:48:29;;;;;;;8.75;2.33;;;;;;;;;;5091019;28;20028;-47
2022/03/19 07:50:56;;;;;;;7.70;2.20;;;;;;;;;;5082104;28;20028;-47
2022/03/19 07:53:22;;;;;;;6.97;2.53;;;;;;;;;;5085147;28;20484;-48
2022/03/19 07:55:50;;;;;;;7.50;2.15;;;;;;;;;;5086642;28;20088;-51
2022/03/19 07:58:16;;;;;;;7.13;2.42;;;;;;;;;;5082525;28;20143;-49
2022/03/19 08:00:42;;;;;;;7.38;2.40;;;;;;;;;;5085633;28;20024;-47
2022/03/19 08:03:08;;;;;;;4.93;2.25;;;;;;;;;;5078768;28;20027;-52
2022/03/19 08:05:34;;;;;;;3.70;2.17;;;;;;;;;;5082480;28;20017;-50
2022/03/19 08:08:01;;;;;;;8.85;2.20;;;;;;;;;;5086715;28;20655;-51
2022/03/19 08:10:26;;;;;;;10.02;1.85;;;;;;;;;;5079717;28;20376;-49
2022/03/19 08:12:57;;;;;;;4.78;1.60;;;;;;;;;;5078074;28;20032;-48
2022/03/19 08:15:23;;;;;;;3.92;1.38;;;;;;;;;;5078562;28;20491;-48
2022/03/19 08:17:49;;;;;;;10.43;2.33;;;;;;;;;;5069754;28;20085;-48
2022/03/19 08:20:15;;;;;;;6.32;1.58;;;;;;;;;;5079780;28;20372;-48
2022/03/19 08:22:41;;;;;;;5.30;1.42;;;;;;;;;;5079736;28;20380;-48
2022/03/19 08:25:08;;;;;;;7.38;1.83;;;;;;;;;;5079981;28;20050;-47
2022/03/19 08:27:34;;;;;;;7.45;1.40;;;;;;;;;;5082667;28;20024;-46
2022/03/19 08:30:02;;;;;;;5.65;1.52;;;;;;;;;;5076390;28;20028;-50
2022/03/19 08:32:28;;;;;;;6.30;1.13;;;;;;;;;;5079881;28;20102;-51
2022/03/19 08:34:54;;;;;;;4.93;1.55;;;;;;;;;;5073288;28;20040;-46
2022/03/19 08:37:20;;;;;;;6.40;2.42;;;;;;;;;;5077381;28;20156;-50
2022/03/19 08:42:33;;;;;;;13.43;4.20;;;;;;;;;;5078595;28;20484;-48
2022/03/19 08:44:59;;;;;;;7.82;1.73;;;;;;;;;;5077326;28;20028;-48
2022/03/19 08:47:25;;;;;;;7.65;1.75;;;;;;;;;;5088670;28;20471;-50
2022/03/19 08:49:51;;;;;;;12.75;1.92;;;;;;;;;;5088178;28;20222;-47
2022/03/19 08:52:17;;;;;;;6.45;1.60;;;;;;;;;;5085120;28;20032;-49
2022/03/19 08:54:43;;;;;;;6.43;2.00;;;;;;;;;;5083590;28;20028;-47
2022/03/19 08:57:10;;;;;;;6.75;2.17;;;;;;;;;;5087772;28;20028;-46
2022/03/19 08:59:36;;;;;;;4.18;1.50;;;;;;;;;;5093697;28;20111;-48
2022/03/19 09:02:02;;;;;;;12.48;5.63;;;;;;;;;;5077437;28;20070;-47
2022/03/19 09:04:28;;;;;;;6.50;1.85;;;;;;;;;;5083474;28;20028;-48
2022/03/19 09:06:54;;;;;;;4.00;1.60;;;;;;;;;;5080749;28;20024;-50
2022/03/19 09:09:20;;;;;;;9.18;2.00;;;;;;;;;;5086955;28;20032;-51
2022/03/19 09:11:48;;;;;;;6.10;1.65;;;;;;;;;;5084002;28;20040;-48
2022/03/19 09:14:15;;;;;;;3.60;1.40;;;;;;;;;;5082337;28;20080;-50
2022/03/19 09:16:41;;;;;;;6.47;1.58;;;;;;;;;;5082403;28;20047;-50
2022/03/19 09:19:07;;;;;;;5.90;1.60;;;;;;;;;;5081442;28;20031;-52
2022/03/19 09:21:33;;;;;;;5.07;1.92;;;;;;;;;;5082125;28;20020;-46
2022/03/19 09:23:59;;;;;;;9.82;2.20;;;;;;;;;;5074527;28;20381;-49
2022/03/19 09:26:26;;;;;;;8.32;1.38;;;;;;;;;;5081304;28;20032;-47
2022/03/19 09:28:52;;;;;;;7.53;1.50;;;;;;;;;;5074902;28;20078;-48
2022/03/19 09:31:18;;;;;;;10.23;1.38;;;;;;;;;;5077065;28;20391;-48
2022/03/19 09:33:45;;;;;;;7.82;2.60;;;;;;;;;;5077678;28;20376;-49
2022/03/19 09:36:11;;;;;;;5.38;1.77;;;;;;;;;;5082378;28;20036;-49
2022/03/19 09:38:37;;;;;;;16.92;5.22;;;;;;;;;;5086875;28;20047;-46
2022/03/19 09:41:03;;;;;;;4.50;1.58;;;;;;;;;;5078559;28;20461;-46
2022/03/19 09:43:29;;;;;;;7.35;1.20;;;;;;;;;;5084306;28;20029;-46
2022/03/19 09:45:55;;;;;;;6.75;1.42;;;;;;;;;;5084359;28;20085;-50
2022/03/19 09:48:22;;;;;;;4.63;1.55;;;;;;;;;;5090092;28;20029;-47
2022/03/19 09:50:51;;;;;;;4.13;1.13;;;;;;;;;;5088513;28;20020;-51
2022/03/19 09:53:19;;;;;;;4.97;1.35;;;;;;;;;;5087265;28;20056;-51
2022/03/19 09:55:46;;;;;;;3.10;1.13;;;;;;;;;;5082420;28;20036;-50
2022/03/19 09:58:13;;;;;;;4.03;1.20;;;;;;;;;;5077377;28;20075;-49
2022/03/19 10:00:39;;;;;;;5.25;1.00;;;;;;;;;;5081647;28;20016;-47
2022/03/19 10:03:08;;;;;;;7.03;1.35;;;;;;;;;;5077123;28;20162;-49
2022/03/19 10:08:36;;;;;;;3.90;0.88;;;;;;;;;;5088354;28;20058;-47
2022/03/19 10:11:02;;;;;;;3.70;0.98;;;;;;;;;;5079230;28;20044;-48
2022/03/19 10:13:28;;;;;;;5.85;1.08;;;;;;;;;;5077443;28;20026;-48
2022/03/19 10:15:54;;;;;;;5.13;0.98;;;;;;;;;;5076757;28;20020;-49
2022/03/19 10:18:27;;;;;;;4.85;1.25;;;;;;;;;;5072326;28;20442;-47
2022/03/19 10:20:53;;;;;;;5.55;0.90;;;;;;;;;;5074014;28;20040;-48
2022/03/19 10:23:37;;;;;;;4.85;0.98;;;;;;;;;;5062886;28;20036;-48
2022/03/19 10:26:03;;;;;;;2.53;1.10;;;;;;;;;;5074443;28;20074;-47
2022/03/19 10:28:36;;;;;;;4.63;1.02;;;;;;;;;;5079909;28;20023;-46
2022/03/19 10:31:02;;;;;;;6.73;1.30;;;;;;;;;;5080632;28;20102;-51
2022/03/19 10:33:31;;;;;;;3.83;1.08;;;;;;;;;;5084012;28;20456;-47
2022/03/19 10:36:08;;;;;;;3.13;0.80;;;;;;;;;;5074109;28;20068;-48
2022/03/19 10:38:41;;;;;;;1.77;0.70;;;;;;;;;;5085367;28;20081;-48
2022/03/19 10:41:07;;;;;;;;;;;;;;;;;;5084097;28;20023;-48
2022/03/19 10:43:34;;;;;;;3.85;1.00;;;;;;;;;;5077389;28;19916;-47
2022/03/19 10:46:02;;;;;;;3.72;0.75;;;;;;;;;;5079579;28;20373;-51
2022/03/19 10:48:28;;;;;;;3.28;1.02;;;;;;;;;;5073553;28;20055;-47
2022/03/19 10:50:55;;;;;;;2.45;1.00;;;;;;;;;;5084216;28;20016;-50
2022/03/19 10:53:22;;;;;;;3.90;1.02;;;;;;;;;;5089397;28;20079;-48
2022/03/19 10:55:48;;;;;;;3.13;1.17;;;;;;;;;;5077707;28;20610;-50
2022/03/19 10:58:14;;;;;;;4.18;1.02;;;;;;;;;;5092078;28;20355;-47
2022/03/19 11:00:41;;;;;;;5.88;1.38;;;;;;;;;;5089697;28;20103;-47
2022/03/19 11:03:18;;;;;;;2.70;0.75;;;;;;;;;;5083359;28;20028;-47
2022/03/19 11:05:45;;;;;;;3.95;1.23;;;;;;;;;;5084341;28;20016;-49
2022/03/19 11:08:11;;;;;;;2.70;1.00;;;;;;;;;;5080696;28;20102;-51
2022/03/19 11:10:38;;;;;;;2.40;1.17;;;;;;;;;;5080284;28;20028;-47
2022/03/19 11:13:05;;;;;;;4.07;1.27;;;;;;;;;;5089611;28;20538;-48
2022/03/19 11:15:33;;;;;;;2.60;1.35;;;;;;;;;;5090600;28;20028;-46
2022/03/19 11:18:00;;;;;;;3.97;0.85;;;;;;;;;;5082387;28;20031;-49
2022/03/19 11:20:27;;;;;;;2.75;0.90;;;;;;;;;;5090691;28;20035;-49
2022/03/19 11:22:54;;;;;;;4.43;1.52;;;;;;;;;;5084873;28;20111;-52
2022/03/19 11:25:30;;;;;;;2.50;0.80;;;;;;;;;;5081702;28;20040;-53
2022/03/19 11:27:56;;;;;;;3.42;1.33;;;;;;;;;;5079637;28;20036;-50
2022/03/19 11:30:23;;;;;;;3.83;1.17;;;;;;;;;;5086843;28;20517;-47
2022/03/19 11:33:07;;;;;;;3.28;1.20;;;;;;;;;;5085388;28;20020;-49
2022/03/19 11:35:34;;;;;;;2.33;1.50;;;;;;;;;;5078224;28;20035;-47
2022/03/19 11:38:05;;;;;;;3.00;0.90;;;;;;;;;;5080325;28;20024;-52
2022/03/19 11:40:35;;;;;;;2.58;1.13;;;;;;;;;;5091837;28;20102;-48
2022/03/19 11:43:04;;;;;;;4.53;1.27;;;;;;;;;;5088244;28;20024;-50
2022/03/19 11:45:39;;;;;;;3.13;1.05;;;;;;;;;;5089442;28;20031;-48
2022/03/19 11:48:25;;;;;;;5.25;1.30;;;;;;;;;;5078297;28;20020;-52
2022/03/19 11:50:52;;;;;;;3.97;1.45;;;;;;;;;;5079901;28;20069;-50
2022/03/19 11:53:18;;;;;;;7.35;1.45;;;;;;;;;;5087532;28;20040;-52
2022/03/19 11:55:44;;;;;;;5.72;1.40;;;;;;;;;;5086661;28;20028;-47
2022/03/19 11:58:13;;;;;;;1.85;1.20;;;;;;;;;;5085037;28;20361;-48
2022/03/19 12:00:39;;;;;;;4.00;1.42;;;;;;;;;;5088630;28;20457;-47
2022/03/19 12:03:08;;;;;;;3.33;1.70;;;;;;;;;;5085475;28;20032;-47
2022/03/19 12:05:36;;;;;;;2.67;1.38;;;;;;;;;;5077816;28;20090;-47
2022/03/19 12:08:06;;;;;;;5.13;1.80;;;;;;;;;;5080364;28;20032;-50
2022/03/19 12:10:40;;;;;;;3.38;1.75;;;;;;;;;;5078252;28;20024;-46
2022/03/19 12:13:25;;;;;;;4.13;1.25;;;;;;;;;;5075230;28;20028;-46
2022/03/19 12:15:51;;;;;;;3.83;1.20;;;;;;;;;;5078990;28;20028;-48
2022/03/19 12:18:42;;;;;;;4.45;1.50;;;;;;;;;;5089105;28;20024;-47
2022/03/19 12:21:11;;;;;;;8.65;1.98;;;;;;;;;;5074596;28;20074;-50
2022/03/19 12:24:01;;;;;;;2.88;1.40;;;;;;;;;;5080358;28;20032;-47
2022/03/19 12:26:35;;;;;;;6.70;2.00;;;;;;;;;;5084541;28;20507;-49
2022/03/19 12:29:02;;;;;;;4.90;1.55;;;;;;;;;;5091587;28;20028;-49
2022/03/19 12:31:30;;;;;;;4.57;1.92;;;;;;;;;;5076268;28;20073;-47
2022/03/19 12:33:56;;;;;;;5.88;1.80;;;;;;;;;;5088937;28;20032;-51
2022/03/19 12:36:22;;;;;;;7.43;1.98;;;;;;;;;;5080675;28;20040;-53
2022/03/19 12:38:50;;;;;;;4.40;1.67;;;;;;;;;;5082247;28;20032;-47
2022/03/19 12:41:24;;;;;;;3.53;1.60;;;;;;;;;;5084121;28;20116;-52
2022/03/19 12:43:50;;;;;;;3.88;1.70;;;;;;;;;;5089563;28;20055;-49
2022/03/19 12:46:23;;;;;;;4.85;1.85;;;;;;;;;;5088860;28;20044;-52
2022/03/19 12:48:49;;;;;;;;;;;;;;;;;;5087958;28;20088;-46
2022/03/19 12:51:23;;;;;;;3.95;1.58;;;;;;;;;;5087113;28;20364;-45
2022/03/19 12:53:49;;;;;;;4.40;1.80;;;;;;;;;;5084397;28;20072;-49
2022/03/19 12:56:17;;;;;;;4.28;2.30;;;;;;;;;;5089563;28;20024;-48
2022/03/19 12:58:44;;;;;;;5.57;1.90;;;;;;;;;;5088488;28;20123;-45
2022/03/19 13:01:11;;;;;;;6.20;2.15;;;;;;;;;;5091161;28;20104;-45
2022/03/19 13:03:37;;;;;;;3.92;1.90;;;;;;;;;;5091290;28;20028;-46
2022/03/19 13:06:03;;;;;;;5.13;1.75;;;;;;;;;;5080818;28;20499;-49
2022/03/19 13:08:29;;;;;;;4.53;2.28;;;;;;;;;;5090388;28;20036;-47
2022/03/19 13:10:55;;;;;;;6.65;2.78;;;;;;;;;;5080884;28;20531;-46
2022/03/19 13:13:22;;;;;;;6.57;3.03;;;;;;;;;;5087694;28;20043;-45
2022/03/19 13:15:56;;;;;;;6.43;4.25;;;;;;;;;;5078835;28;20384;-50
2022/03/19 13:18:27;;;;;;;7.65;4.55;;;;;;;;;;5083471;28;20767;-49
2022/03/19 13:21:09;;;;;;;12.20;5.32;;;;;;;;;;5089131;28;20093;-50
2022/03/19 13:23:36;;;;;;;11.82;5.13;;;;;;;;;;5084997;28;20024;-50
2022/03/19 13:26:03;;;;;;;9.27;4.95;;;;;;;;;;5087944;28;20033;-45
2022/03/19 13:28:29;;;;;;;9.43;4.38;;;;;;;;;;5078359;28;20032;-48
2022/03/19 13:30:56;;;;;;;10.50;4.80;;;;;;;;;;5082552;28;20031;-49
2022/03/19 13:33:22;;;;;;;9.57;4.85;;;;;;;;;;5085102;28;20419;-51
2022/03/19 13:35:49;;;;;;;11.85;5.15;;;;;;;;;;5079617;28;20031;-50
2022/03/19 13:38:16;;;;;;;13.55;5.97;;;;;;;;;;5087804;28;20017;-48
2022/03/19 13:40:42;;;;;;;8.27;5.07;;;;;;;;;;5086674;28;20031;-46
2022/03/19 13:43:08;;;;;;;10.68;5.50;;;;;;;;;;5085005;28;20120;-47
2022/03/19 13:45:35;;;;;;;11.13;5.22;;;;;;;;;;5081562;28;20088;-52
2022/03/19 13:48:02;;;;;;;12.45;5.82;;;;;;;;;;5086993;28;20020;-51
2022/03/19 13:50:28;;;;;;;12.65;6.50;;;;;;;;;;5077724;28;20029;-49
2022/03/19 13:52:56;;;;;;;10.02;5.93;;;;;;;;;;5084676;28;20615;-46
2022/03/19 13:55:21;;;;;;;14.20;6.85;;;;;;;;;;5083816;28;20032;-50
2022/03/19 13:57:48;;;;;;;9.98;5.80;;;;;;;;;;5083001;28;20043;-47
2022/03/19 14:00:15;;;;;;;13.00;6.68;;;;;;;;;;5080839;28;20077;-53
2022/03/19 14:02:42;;;;;;;9.05;6.15;;;;;;;;;;5082039;28;20150;-49
2022/03/19 14:05:11;;;;;;;13.25;6.55;;;;;;;;;;5078088;28;20083;-51
2022/03/19 14:07:38;;;;;;;11.07;6.22;;;;;;;;;;5081587;28;20063;-51
2022/03/19 14:10:08;;;;;;;8.10;5.35;;;;;;;;;;5083314;28;20024;-47
2022/03/19 14:12:39;;;;;;;9.00;5.38;;;;;;;;;;5084720;28;20028;-49
2022/03/19 14:15:06;;;;;;;10.23;5.70;;;;;;;;;;5079819;28;20107;-48
2022/03/19 14:17:50;;;;;;;9.70;5.05;;;;;;;;;;5076106;28;20043;-50
2022/03/19 14:20:18;;;;;;;8.32;4.45;;;;;;;;;;5079741;28;20032;-52
2022/03/19 14:22:44;;;;;;;8.10;5.03;;;;;;;;;;5079689;28;20103;-52
2022/03/19 14:25:10;;;;;;;9.52;4.93;;;;;;;;;;5083089;28;20024;-51
2022/03/19 14:27:37;;;;;;;9.18;5.00;;;;;;;;;;5086442;28;20075;-50
2022/03/19 14:30:04;;;;;;;15.38;5.45;;;;;;;;;;5084792;28;20028;-50
2022/03/19 14:32:29;;;;;;;9.32;5.07;;;;;;;;;;5076211;28;20059;-50
2022/03/19 14:34:55;;;;;;;11.82;5.15;;;;;;;;;;5080557;28;20056;-50
2022/03/19 14:37:22;;;;;;;8.35;4.95;;;;;;;;;;5083545;28;20043;-51
2022/03/19 14:39:48;;;;;;;9.60;4.68;;;;;;;;;;5084354;28;20058;-51
2022/03/19 14:42:14;;;;;;;10.60;5.55;;;;;;;;;;5084524;28;20484;-48
2022/03/19 14:44:40;;;;;;;11.48;5.07;;;;;;;;;;5084218;28;20035;-50
2022/03/19 14:47:06;;;;;;;11.35;5.82;;;;;;;;;;5087271;28;20543;-52
2022/03/19 14:49:32;;;;;;;10.60;5.93;;;;;;;;;;5078520;28;20150;-48
2022/03/19 14:51:58;;;;;;;9.70;5.68;;;;;;;;;;5076285;28;20028;-51